Home > Products > Valid Products > MTR

000
SAUS41 KBOX 042155
MTRMQE
METAR KMQE 042154Z AUTO 36005KT 20/16 A2995 RMK AO1 SLP150 T02000156





000
SAUS41 KBOX 042055
MTRMQE
METAR KMQE 042054Z AUTO 04005KT 21/16 A2995 RMK AO1 SLP151 T02060161
58009





000
SAUS41 KBOX 042055
MTRMQE
METAR KMQE 042054Z AUTO 04005KT 21/16 A2995 RMK AO1 SLP151 T02060161
58009





000
SAUS41 KBOX 041955
MTRMQE
METAR KMQE 041954Z AUTO 00000KT 22/16 A2997 RMK AO1 SLP158 T02170156





000
SAUS41 KBOX 041955
MTRMQE
METAR KMQE 041954Z AUTO 00000KT 22/16 A2997 RMK AO1 SLP158 T02170156





000
SAUS41 KBOX 041855
MTRMQE
METAR KMQE 041854Z AUTO VRB03KT 22/13 A2999 RMK AO1 SLP162 T02220133





000
SAUS41 KBOX 041855
MTRMQE
METAR KMQE 041854Z AUTO VRB03KT 22/13 A2999 RMK AO1 SLP162 T02220133





000
SAUS41 KBOX 041755
MTRMQE
METAR KMQE 041754Z AUTO 14003KT 22/12 A2998 RMK AO1 SLP160 T02170117
10233 20178 56006





000
SAUS41 KBOX 041755
MTRMQE
METAR KMQE 041754Z AUTO 14003KT 22/12 A2998 RMK AO1 SLP160 T02170117
10233 20178 56006





000
SAUS41 KBOX 041655
MTRMQE
METAR KMQE 041654Z AUTO VRB03KT 22/12 A2998 RMK AO1 SLP160 T02220117





000
SAUS41 KBOX 041555
MTRMQE
METAR KMQE 041554Z AUTO VRB04KT 23/13 A2999 RMK AO1 SLP163 T02280133





000
SAUS41 KBOX 041555
MTRMQE
METAR KMQE 041554Z AUTO VRB04KT 23/13 A2999 RMK AO1 SLP163 T02280133





000
SAUS41 KBOX 041455
MTRMQE
METAR KMQE 041454Z AUTO 15003KT 21/14 A3000 RMK AO1 SLP167 T02060139
55001





000
SAUS41 KBOX 041355
MTRMQE
METAR KMQE 041354Z AUTO VRB03KT 19/14 A3000 RMK AO1 SLP165 T01940144





000
SAUS41 KBOX 041355
MTRMQE
METAR KMQE 041354Z AUTO VRB03KT 19/14 A3000 RMK AO1 SLP165 T01940144





000
SAUS41 KBOX 041255
MTRMQE
METAR KMQE 041254Z AUTO 17005KT 18/15 A3000 RMK AO1 SLP167 T01830150





000
SAUS41 KBOX 041255
MTRMQE
METAR KMQE 041254Z AUTO 17005KT 18/15 A3000 RMK AO1 SLP167 T01830150





000
SAUS41 KBOX 041155
MTRMQE
METAR KMQE 041154Z AUTO 20006KT 18/13 A3000 RMK AO1 SLP168 T01780133
10183 20156 55000





000
SAUS41 KBOX 041055
MTRMQE
METAR KMQE 041054Z AUTO 20006KT 18/14 A3000 RMK AO1 SLP164 T01780139





000
SAUS41 KBOX 041055
MTRMQE
METAR KMQE 041054Z AUTO 20006KT 18/14 A3000 RMK AO1 SLP164 T01780139





000
SAUS41 KBOX 040955
MTRMQE
METAR KMQE 040954Z AUTO 22009KT 17/15 A3000 RMK AO1 SLP167 T01670150





000
SAUS41 KBOX 040955
MTRMQE
METAR KMQE 040954Z AUTO 22009KT 17/15 A3000 RMK AO1 SLP167 T01670150





000
SAUS41 KBOX 040855
MTRMQE
METAR KMQE 040854Z AUTO 21009KT 16/15 A3000 RMK AO1 SLP167 T01610150
50001





000
SAUS41 KBOX 040855
MTRMQE
METAR KMQE 040854Z AUTO 21009KT 16/15 A3000 RMK AO1 SLP167 T01610150
50001





000
SAUS41 KBOX 040755
MTRMQE
METAR KMQE 040754Z AUTO 20010KT 16/14 A3000 RMK AO1 SLP167 T01560144





000
SAUS41 KBOX 040655
MTRMQE
METAR KMQE 040654Z AUTO 19009KT 16/13 A3001 RMK AO1 SLP167 T01560133





000
SAUS41 KBOX 040555
MTRMQE
METAR KMQE 040554Z AUTO 19009KT 16/12 A3000 RMK AO1 SLP166 T01610122
10211 20161 50002





000
SAUS41 KBOX 040455
MTRMQE
METAR KMQE 040454Z AUTO 19008KT 17/12 A3000 RMK AO1 SLP167 T01670117
402560139





000
SAUS41 KBOX 040355
MTRMQE
METAR KMQE 040354Z AUTO 20010KT 17/12 A3001 RMK AO1 SLP168 T01720117





000
SAUS41 KBOX 040255
MTRMQE
METAR KMQE 040254Z AUTO 16007KT 17/11 A2999 RMK AO1 SLP165 T01720111
52009





000
SAUS41 KBOX 040255
MTRMQE
METAR KMQE 040254Z AUTO 16007KT 17/11 A2999 RMK AO1 SLP165 T01720111
52009





000
SAUS41 KBOX 040155
MTRMQE
METAR KMQE 040154Z AUTO 19009KT 19/12 A2999 RMK AO1 SLP165 T01890117





000
SAUS41 KBOX 040155
MTRMQE
METAR KMQE 040154Z AUTO 19009KT 19/12 A2999 RMK AO1 SLP165 T01890117





000
SAUS41 KBOX 040055
MTRMQE
METAR KMQE 040054Z AUTO 17005KT 20/13 A2997 RMK AO1 SLP156 T02000128





000
SAUS41 KBOX 032355
MTRMQE
METAR KMQE 032354Z AUTO 30006KT 21/11 A2997 RMK AO1 SLP156 T02060106
10256 20206 53004





000
SAUS41 KBOX 032255
MTRMQE
METAR KMQE 032254Z AUTO 28007KT 23/10 A2996 RMK AO1 SLP155 T02280100





000
SAUS41 KBOX 032155
MTRMQE
METAR KMQE 032154Z AUTO 27009KT 24/11 A2995 RMK AO1 SLP150 T02390106





000
SAUS41 KBOX 032055
MTRMQE
METAR KMQE 032054Z AUTO 21006KT 26/11 A2996 RMK AO1 SLP151 T02560111
55002





000
SAUS41 KBOX 032055
MTRMQE
METAR KMQE 032054Z AUTO 21006KT 26/11 A2996 RMK AO1 SLP151 T02560111
55002





000
SAUS41 KBOX 031955
MTRMQE
METAR KMQE 031954Z AUTO 25005KT 25/11 A2995 RMK AO1 SLP150 T02500106





000
SAUS41 KBOX 031955
MTRMQE
METAR KMQE 031954Z AUTO 25005KT 25/11 A2995 RMK AO1 SLP150 T02500106





000
SAUS41 KBOX 031855
MTRMQE
METAR KMQE 031854Z AUTO 29010G14KT 25/11 A2996 RMK AO1 SLP152
T02500106





000
SAUS41 KBOX 031855
MTRMQE
METAR KMQE 031854Z AUTO 29010G14KT 25/11 A2996 RMK AO1 SLP152
T02500106





000
SAUS41 KBOX 031755
MTRMQE
METAR KMQE 031754Z AUTO VRB06KT 25/10 A2996 RMK AO1 SLP153 T02500100
10250 20178 52001





000
SAUS41 KBOX 031755
MTRMQE
METAR KMQE 031754Z AUTO VRB06KT 25/10 A2996 RMK AO1 SLP153 T02500100
10250 20178 52001





000
SAUS41 KBOX 031655
MTRMQE
METAR KMQE 031654Z AUTO VRB05KT 24/10 A2997 RMK AO1 SLP154 T02390100





000
SAUS41 KBOX 031555
MTRMQE
METAR KMQE 031554Z AUTO VRB04KT 24/10 A2996 RMK AO1 SLP151 T02390100





000
SAUS41 KBOX 031455
MTRMQE
METAR KMQE 031454Z AUTO 30007KT 22/09 A2996 RMK AO1 SLP153 T02220094
50005





000
SAUS41 KBOX 031355
MTRMQE
METAR KMQE 031354Z AUTO VRB05KT 21/09 A2996 RMK AO1 SLP154 T02110094





000
SAUS41 KBOX 031255
MTRMQE
METAR KMQE 031254Z AUTO 35005KT 20/11 A2996 RMK AO1 SLP153 T02000111





000
SAUS41 KBOX 031155
MTRMQE
METAR KMQE 031154Z AUTO 36005KT 18/12 A2995 RMK AO1 SLP149 T01780122
10178 20139 53020





000
SAUS41 KBOX 031055
MTRMQE
METAR KMQE 031054Z AUTO 36008KT 15/12 A2992 RMK AO1 SLP141 T01500117





000
SAUS41 KBOX 031055
MTRMQE
METAR KMQE 031054Z AUTO 36008KT 15/12 A2992 RMK AO1 SLP141 T01500117





000
SAUS41 KBOX 030955
MTRMQE
METAR KMQE 030954Z AUTO 35010KT 14/12 A2990 RMK AO1 SLP134 T01390122





000
SAUS41 KBOX 030855
MTRMQE
METAR KMQE 030854Z AUTO 36009KT 15/12 A2989 RMK AO1 SLP128 T01500117
53003





000
SAUS41 KBOX 030855
MTRMQE
METAR KMQE 030854Z AUTO 36009KT 15/12 A2989 RMK AO1 SLP128 T01500117
53003





000
SAUS41 KBOX 030755
MTRMQE
METAR KMQE 030754Z AUTO 36008KT 16/11 A2988 RMK AO1 SLP126 T01610111





000
SAUS41 KBOX 030755
MTRMQE
METAR KMQE 030754Z AUTO 36008KT 16/11 A2988 RMK AO1 SLP126 T01610111





000
SAUS41 KBOX 030655
MTRMQE
METAR KMQE 030654Z AUTO 36009KT 17/13 A2987 RMK AO1 SLP123 T01670133





000
SAUS41 KBOX 030555
MTRMQE
METAR KMQE 030554Z AUTO 33008KT 18/14 A2988 RMK AO1 SLP124 T01780144
10206 20178 53001





000
SAUS41 KBOX 030555
MTRMQE
METAR KMQE 030554Z AUTO 33008KT 18/14 A2988 RMK AO1 SLP124 T01780144
10206 20178 53001





000
SAUS41 KBOX 030456
MTRMQE
METAR KMQE 030454Z AUTO 31009KT 18/14 A2988 RMK AO1 SLP124 T01830144
402560156





000
SAUS41 KBOX 030355
MTRMQE
METAR KMQE 030354Z AUTO 31008KT 19/14 A2987 RMK AO1 SLP121 T01940144





000
SAUS41 KBOX 030355
MTRMQE
METAR KMQE 030354Z AUTO 31008KT 19/14 A2987 RMK AO1 SLP121 T01940144





000
SAUS41 KBOX 030255
MTRMQE
METAR KMQE 030254Z AUTO 30006KT 19/14 A2988 RMK AO1 SLP124 T01940144
50001





000
SAUS41 KBOX 030255
MTRMQE
METAR KMQE 030254Z AUTO 30006KT 19/14 A2988 RMK AO1 SLP124 T01940144
50001





000
SAUS41 KBOX 030155
MTRMQE
METAR KMQE 030154Z AUTO 28006KT 19/14 A2988 RMK AO1 SLP126 T01940144





000
SAUS41 KBOX 030055
MTRMQE
METAR KMQE 030054Z AUTO 27007KT 20/14 A2988 RMK AO1 SLP126 T02000144





000
SAUS41 KBOX 022355
MTRMQE
METAR KMQE 022354Z AUTO 29008KT 21/15 A2987 RMK AO1 SLP124 T02060150
10256 20206 55001





000
SAUS41 KBOX 022255
MTRMQE
METAR KMQE 022254Z AUTO 28007KT 22/14 A2987 RMK AO1 SLP123 T02170144





000
SAUS41 KBOX 022155
MTRMQE
METAR KMQE 022154Z AUTO 27010KT 22/14 A2987 RMK AO1 SLP122 T02220144





000
SAUS41 KBOX 022155
MTRMQE
METAR KMQE 022154Z AUTO 27010KT 22/14 A2987 RMK AO1 SLP122 T02220144





000
SAUS41 KBOX 022055
MTRMQE
METAR KMQE 022054Z AUTO 26011KT 24/15 A2988 RMK AO1 SLP125 T02390150
55000





000
SAUS41 KBOX 021955
MTRMQE
METAR KMQE 021954Z AUTO 27013G18KT 24/14 A2987 RMK AO1 SLP124
T02390139





000
SAUS41 KBOX 021855
MTRMQE
METAR KMQE 021854Z AUTO 26009KT 24/13 A2988 RMK AO1 SLP124 T02440133





000
SAUS41 KBOX 021855
MTRMQE
METAR KMQE 021854Z AUTO 26009KT 24/13 A2988 RMK AO1 SLP124 T02440133





000
SAUS41 KBOX 021755
MTRMQE
METAR KMQE 021754Z AUTO 26009G15KT 230V310 25/14 A2988 RMK AO1
SLP125 T02500139 10250 20183 58008





000
SAUS41 KBOX 021655
MTRMQE
METAR KMQE 021654Z AUTO 23010G16KT 24/14 A2989 RMK AO1 SLP127
T02390139





000
SAUS41 KBOX 021555
MTRMQE
METAR KMQE 021554Z AUTO 26007G14KT 220V290 24/14 A2990 RMK AO1
SLP132 T02390139





000
SAUS41 KBOX 021455
MTRMQE
METAR KMQE 021454Z AUTO 23008KT 200V260 22/13 A2990 RMK AO1 SLP133
T02220133 51009





000
SAUS41 KBOX 021355
MTRMQE
METAR KMQE 021354Z AUTO 26007KT 21/14 A2990 RMK AO1 SLP132 T02110144





000
SAUS41 KBOX 021355
MTRMQE
METAR KMQE 021354Z AUTO 26007KT 21/14 A2990 RMK AO1 SLP132 T02110144





000
SAUS41 KBOX 021255
MTRMQE
METAR KMQE 021254Z AUTO 29006KT 19/15 A2989 RMK AO1 SLP127 T01940150





000
SAUS41 KBOX 021155
MTRMQE
METAR KMQE 021154Z AUTO 26010KT 18/14 A2988 RMK AO1 SLP124 70039
T01830144 10183 20156 53016





000
SAUS41 KBOX 021155
MTRMQE
METAR KMQE 021154Z AUTO 26010KT 18/14 A2988 RMK AO1 SLP124 70039
T01830144 10183 20156 53016





000
SAUS41 KBOX 021055
MTRMQE
METAR KMQE 021054Z AUTO 24009KT 17/14 A2986 RMK AO1 SLP118 T01670139





000
SAUS41 KBOX 020955
MTRMQE
METAR KMQE 020954Z AUTO 26009KT 16/13 A2984 RMK AO1 SLP112 T01560133





000
SAUS41 KBOX 020855
MTRMQE
METAR KMQE 020854Z AUTO 28016KT 16/13 A2983 RMK AO1 SLP107 T01610133
50000





000
SAUS41 KBOX 020855
MTRMQE
METAR KMQE 020854Z AUTO 28016KT 16/13 A2983 RMK AO1 SLP107 T01610133
50000





000
SAUS41 KBOX 020755
MTRMQE
METAR KMQE 020754Z AUTO 26011KT 16/14 A2984 RMK AO1 SLP110 T01610139





000
SAUS41 KBOX 020655
MTRMQE
METAR KMQE 020654Z AUTO 25012KT 17/14 A2983 RMK AO1 SLP107 T01720139





000
SAUS41 KBOX 020555
MTRMQE
METAR KMQE 020554Z AUTO 26012KT 18/14 A2983 RMK AO1 SLP107 60011
T01780139 10233 20172 51008





000
SAUS41 KBOX 020555
MTRMQE
METAR KMQE 020554Z AUTO 26012KT 18/14 A2983 RMK AO1 SLP107 60011
T01780139 10233 20172 51008





000
SAUS41 KBOX 020455
MTRMQE
METAR KMQE 020454Z AUTO 26013G22KT 18/14 A2983 RMK AO1 SLP107
T01830144 402670172





000
SAUS41 KBOX 020355
MTRMQE
METAR KMQE 020354Z AUTO 27013G20KT 19/15 A2982 RMK AO1 SLP105
T01890150





000
SAUS41 KBOX 020255
MTRMQE
METAR KMQE 020254Z AUTO 27016G23KT 19/16 A2980 RMK AO1 SLP099 60011
T01890161 51019





000
SAUS41 KBOX 020155
MTRMQE
METAR KMQE 020154Z AUTO 27015KT 19/17 A2979 RMK AO1 SLP096 P0011
T01890172





000
SAUS41 KBOX 020155
MTRMQE
METAR KMQE 020154Z AUTO 27015KT 19/17 A2979 RMK AO1 SLP096 P0011
T01890172





000
SAUS41 KBOX 020055
MTRMQE
METAR KMQE 020054Z AUTO 21013KT 22/18 A2976 RMK AO1 SLP084 T02220178





000
SAUS41 KBOX 012355
MTRMQE
METAR KMQE 012354Z AUTO 23011G18KT 23/18 A2975 RMK AO1 SLP079
T02330178 10267 20233 53011





000
SAUS41 KBOX 012255
MTRMQE
METAR KMQE 012254Z AUTO 23011G19KT 24/18 A2973 RMK AO1 SLP074
T02440178





000
SAUS41 KBOX 012255
MTRMQE
METAR KMQE 012254Z AUTO 23011G19KT 24/18 A2973 RMK AO1 SLP074
T02440178





    US Dept of Commerce
    National Oceanic and Atmospheric Administration
    National Weather Service
    1325 East West Highway
    Silver Spring, MD 20910
    Page Author: NWS Internet Services Team
Disclaimer
Information Quality
Credits
Glossary
Privacy Policy
Freedom of Information Act (FOIA)
About Us
Career Opportunities